sensor_id;sensor_type;location;lat;lon;timestamp;temperature;humidity
8424;DHT22;4249;49.072;9.770;2022-09-27T00:00:46;9.90;1.00
8424;DHT22;4249;49.072;9.770;2022-09-27T00:03:34;9.90;1.00
8424;DHT22;4249;49.072;9.770;2022-09-27T00:06:23;9.90;1.00
8424;DHT22;4249;49.072;9.770;2022-09-27T00:09:11;9.90;1.00
8424;DHT22;4249;49.072;9.770;2022-09-27T00:11:58;9.90;1.00
8424;DHT22;4249;49.072;9.770;2022-09-27T00:14:45;9.90;1.00
8424;DHT22;4249;49.072;9.770;2022-09-27T00:17:34;9.90;1.00
8424;DHT22;4249;49.072;9.770;2022-09-27T00:20:21;9.90;1.00
8424;DHT22;4249;49.072;9.770;2022-09-27T00:23:09;9.90;1.00
8424;DHT22;4249;49.072;9.770;2022-09-27T00:25:56;9.90;1.00
8424;DHT22;4249;49.072;9.770;2022-09-27T00:28:44;9.90;1.00
8424;DHT22;4249;49.072;9.770;2022-09-27T00:31:32;9.90;1.00
8424;DHT22;4249;49.072;9.770;2022-09-27T00:34:22;10.00;1.00
8424;DHT22;4249;49.072;9.770;2022-09-27T00:37:10;9.90;1.00
8424;DHT22;4249;49.072;9.770;2022-09-27T00:39:57;9.90;1.00
8424;DHT22;4249;49.072;9.770;2022-09-27T00:42:45;9.90;1.00
8424;DHT22;4249;49.072;9.770;2022-09-27T00:45:32;9.80;1.00
8424;DHT22;4249;49.072;9.770;2022-09-27T00:48:22;9.80;1.00
8424;DHT22;4249;49.072;9.770;2022-09-27T00:51:14;9.80;1.00
8424;DHT22;4249;49.072;9.770;2022-09-27T00:54:02;9.80;1.00
8424;DHT22;4249;49.072;9.770;2022-09-27T00:56:50;9.80;1.00
8424;DHT22;4249;49.072;9.770;2022-09-27T00:59:42;9.90;1.00
8424;DHT22;4249;49.072;9.770;2022-09-27T01:02:31;9.80;1.00
8424;DHT22;4249;49.072;9.770;2022-09-27T01:05:24;9.90;1.00
8424;DHT22;4249;49.072;9.770;2022-09-27T01:08:15;9.90;1.00
8424;DHT22;4249;49.072;9.770;2022-09-27T01:11:13;9.90;1.00
8424;DHT22;4249;49.072;9.770;2022-09-27T01:14:12;9.90;1.00
8424;DHT22;4249;49.072;9.770;2022-09-27T01:17:15;9.80;1.00
8424;DHT22;4249;49.072;9.770;2022-09-27T01:20:30;9.80;1.00
8424;DHT22;4249;49.072;9.770;2022-09-27T01:30:20;9.80;1.00
8424;DHT22;4249;49.072;9.770;2022-09-27T01:33:16;9.80;1.00
8424;DHT22;4249;49.072;9.770;2022-09-27T01:36:14;9.80;1.00
8424;DHT22;4249;49.072;9.770;2022-09-27T01:39:12;9.80;1.00
8424;DHT22;4249;49.072;9.770;2022-09-27T01:42:09;9.80;1.00
8424;DHT22;4249;49.072;9.770;2022-09-27T01:45:01;9.90;1.00
8424;DHT22;4249;49.072;9.770;2022-09-27T01:47:54;9.80;1.00
8424;DHT22;4249;49.072;9.770;2022-09-27T01:50:45;9.90;1.00
8424;DHT22;4249;49.072;9.770;2022-09-27T01:53:37;9.80;1.00
8424;DHT22;4249;49.072;9.770;2022-09-27T01:56:29;10.00;1.00
8424;DHT22;4249;49.072;9.770;2022-09-27T01:59:20;10.00;1.00
8424;DHT22;4249;49.072;9.770;2022-09-27T02:02:11;10.00;1.00
8424;DHT22;4249;49.072;9.770;2022-09-27T02:05:05;10.00;1.00
8424;DHT22;4249;49.072;9.770;2022-09-27T02:07:57;9.90;1.00
8424;DHT22;4249;49.072;9.770;2022-09-27T02:10:48;9.90;1.00
8424;DHT22;4249;49.072;9.770;2022-09-27T02:13:42;9.90;1.00
8424;DHT22;4249;49.072;9.770;2022-09-27T02:16:39;9.90;1.00
8424;DHT22;4249;49.072;9.770;2022-09-27T02:19:35;9.90;1.00
8424;DHT22;4249;49.072;9.770;2022-09-27T02:22:31;9.80;1.00
8424;DHT22;4249;49.072;9.770;2022-09-27T02:25:24;9.90;1.00
8424;DHT22;4249;49.072;9.770;2022-09-27T02:28:20;9.90;1.00
8424;DHT22;4249;49.072;9.770;2022-09-27T02:31:09;9.80;1.00
8424;DHT22;4249;49.072;9.770;2022-09-27T02:34:00;9.90;1.00
8424;DHT22;4249;49.072;9.770;2022-09-27T02:36:48;9.90;1.00
8424;DHT22;4249;49.072;9.770;2022-09-27T02:39:40;9.80;1.00
8424;DHT22;4249;49.072;9.770;2022-09-27T02:42:28;9.90;1.00
8424;DHT22;4249;49.072;9.770;2022-09-27T02:45:17;9.90;1.00
8424;DHT22;4249;49.072;9.770;2022-09-27T02:48:14;9.90;1.00
8424;DHT22;4249;49.072;9.770;2022-09-27T02:51:25;9.90;1.00
8424;DHT22;4249;49.072;9.770;2022-09-27T02:54:21;9.90;1.00
8424;DHT22;4249;49.072;9.770;2022-09-27T02:57:21;9.80;1.00
8424;DHT22;4249;49.072;9.770;2022-09-27T03:00:15;9.90;1.00
8424;DHT22;4249;49.072;9.770;2022-09-27T03:03:08;9.90;1.00
8424;DHT22;4249;49.072;9.770;2022-09-27T03:06:01;9.90;1.00
8424;DHT22;4249;49.072;9.770;2022-09-27T03:08:50;9.90;1.00
8424;DHT22;4249;49.072;9.770;2022-09-27T03:11:37;9.80;1.00
8424;DHT22;4249;49.072;9.770;2022-09-27T03:14:26;9.70;1.00
8424;DHT22;4249;49.072;9.770;2022-09-27T03:17:13;9.60;1.00
8424;DHT22;4249;49.072;9.770;2022-09-27T03:20:00;9.60;1.00
8424;DHT22;4249;49.072;9.770;2022-09-27T03:22:48;9.60;1.00
8424;DHT22;4249;49.072;9.770;2022-09-27T03:25:35;9.50;1.00
8424;DHT22;4249;49.072;9.770;2022-09-27T03:28:22;9.50;1.00
8424;DHT22;4249;49.072;9.770;2022-09-27T03:31:11;9.40;1.00
8424;DHT22;4249;49.072;9.770;2022-09-27T03:33:59;9.40;1.00
8424;DHT22;4249;49.072;9.770;2022-09-27T03:36:46;9.40;1.00
8424;DHT22;4249;49.072;9.770;2022-09-27T03:39:34;9.50;1.00
8424;DHT22;4249;49.072;9.770;2022-09-27T03:42:21;9.50;1.00
8424;DHT22;4249;49.072;9.770;2022-09-27T03:45:09;9.40;1.00
8424;DHT22;4249;49.072;9.770;2022-09-27T03:47:58;9.50;1.00
8424;DHT22;4249;49.072;9.770;2022-09-27T03:50:45;9.50;1.00
8424;DHT22;4249;49.072;9.770;2022-09-27T03:53:32;9.40;1.00
8424;DHT22;4249;49.072;9.770;2022-09-27T03:56:20;9.40;1.00
8424;DHT22;4249;49.072;9.770;2022-09-27T03:59:08;9.40;1.00
8424;DHT22;4249;49.072;9.770;2022-09-27T04:01:56;9.40;1.00
8424;DHT22;4249;49.072;9.770;2022-09-27T04:04:44;9.40;1.00
8424;DHT22;4249;49.072;9.770;2022-09-27T04:07:32;9.40;1.00
8424;DHT22;4249;49.072;9.770;2022-09-27T04:10:19;9.40;1.00
8424;DHT22;4249;49.072;9.770;2022-09-27T04:13:06;9.40;1.00
8424;DHT22;4249;49.072;9.770;2022-09-27T04:15:54;9.40;1.00
8424;DHT22;4249;49.072;9.770;2022-09-27T04:18:41;9.40;1.00
8424;DHT22;4249;49.072;9.770;2022-09-27T04:21:30;9.30;1.00
8424;DHT22;4249;49.072;9.770;2022-09-27T04:24:17;9.40;1.00
8424;DHT22;4249;49.072;9.770;2022-09-27T04:27:04;9.40;1.00
8424;DHT22;4249;49.072;9.770;2022-09-27T04:29:52;9.40;1.00
8424;DHT22;4249;49.072;9.770;2022-09-27T04:32:40;9.40;1.00
8424;DHT22;4249;49.072;9.770;2022-09-27T04:35:28;9.30;1.00
8424;DHT22;4249;49.072;9.770;2022-09-27T04:38:33;9.40;1.00
8424;DHT22;4249;49.072;9.770;2022-09-27T04:41:22;9.40;1.00
8424;DHT22;4249;49.072;9.770;2022-09-27T04:44:09;9.30;1.00
8424;DHT22;4249;49.072;9.770;2022-09-27T04:46:57;9.40;1.00
8424;DHT22;4249;49.072;9.770;2022-09-27T04:49:44;9.30;1.00
8424;DHT22;4249;49.072;9.770;2022-09-27T04:52:31;9.30;1.00
8424;DHT22;4249;49.072;9.770;2022-09-27T04:55:20;9.30;1.00
8424;DHT22;4249;49.072;9.770;2022-09-27T04:58:08;9.20;1.00
8424;DHT22;4249;49.072;9.770;2022-09-27T05:00:56;9.20;1.00
8424;DHT22;4249;49.072;9.770;2022-09-27T05:03:43;9.30;1.00
8424;DHT22;4249;49.072;9.770;2022-09-27T05:06:30;9.20;1.00
8424;DHT22;4249;49.072;9.770;2022-09-27T05:09:18;9.20;1.00
8424;DHT22;4249;49.072;9.770;2022-09-27T05:12:07;9.20;1.00
8424;DHT22;4249;49.072;9.770;2022-09-27T05:14:54;9.20;1.00
8424;DHT22;4249;49.072;9.770;2022-09-27T05:17:41;9.20;1.00
8424;DHT22;4249;49.072;9.770;2022-09-27T05:20:28;9.10;1.00
8424;DHT22;4249;49.072;9.770;2022-09-27T05:23:16;9.00;1.00
8424;DHT22;4249;49.072;9.770;2022-09-27T05:26:05;9.00;1.00
8424;DHT22;4249;49.072;9.770;2022-09-27T05:28:54;9.00;1.00
8424;DHT22;4249;49.072;9.770;2022-09-27T05:31:41;9.00;1.00
8424;DHT22;4249;49.072;9.770;2022-09-27T05:34:28;9.00;1.00
8424;DHT22;4249;49.072;9.770;2022-09-27T05:37:17;9.10;1.00
8424;DHT22;4249;49.072;9.770;2022-09-27T05:40:05;9.10;1.00
8424;DHT22;4249;49.072;9.770;2022-09-27T05:42:53;9.10;1.00
8424;DHT22;4249;49.072;9.770;2022-09-27T05:45:42;9.10;1.00
8424;DHT22;4249;49.072;9.770;2022-09-27T05:48:30;9.20;1.00
8424;DHT22;4249;49.072;9.770;2022-09-27T05:51:17;9.30;1.00
8424;DHT22;4249;49.072;9.770;2022-09-27T05:54:05;9.30;1.00
8424;DHT22;4249;49.072;9.770;2022-09-27T05:56:53;9.40;1.00
8424;DHT22;4249;49.072;9.770;2022-09-27T05:59:43;9.40;1.00
8424;DHT22;4249;49.072;9.770;2022-09-27T06:02:31;9.60;1.00
8424;DHT22;4249;49.072;9.770;2022-09-27T06:05:20;9.60;1.00
8424;DHT22;4249;49.072;9.770;2022-09-27T06:08:09;9.50;1.00
8424;DHT22;4249;49.072;9.770;2022-09-27T06:11:00;9.50;1.00
8424;DHT22;4249;49.072;9.770;2022-09-27T06:13:49;9.50;1.00
8424;DHT22;4249;49.072;9.770;2022-09-27T06:16:36;9.70;1.00
8424;DHT22;4249;49.072;9.770;2022-09-27T06:19:25;9.80;1.00
8424;DHT22;4249;49.072;9.770;2022-09-27T06:22:12;9.90;1.00
8424;DHT22;4249;49.072;9.770;2022-09-27T06:24:59;10.00;1.00
8424;DHT22;4249;49.072;9.770;2022-09-27T06:27:48;9.90;1.00
8424;DHT22;4249;49.072;9.770;2022-09-27T06:30:37;9.90;1.00
8424;DHT22;4249;49.072;9.770;2022-09-27T06:33:25;10.10;1.00
8424;DHT22;4249;49.072;9.770;2022-09-27T06:36:15;10.10;1.00
8424;DHT22;4249;49.072;9.770;2022-09-27T06:39:02;10.10;1.00
8424;DHT22;4249;49.072;9.770;2022-09-27T06:41:53;10.20;1.00
8424;DHT22;4249;49.072;9.770;2022-09-27T06:44:42;10.30;1.00
8424;DHT22;4249;49.072;9.770;2022-09-27T06:47:34;10.20;1.00
8424;DHT22;4249;49.072;9.770;2022-09-27T06:50:21;10.10;1.00
8424;DHT22;4249;49.072;9.770;2022-09-27T06:53:12;9.90;1.00
8424;DHT22;4249;49.072;9.770;2022-09-27T06:56:00;9.70;1.00
8424;DHT22;4249;49.072;9.770;2022-09-27T06:58:48;9.60;1.00
8424;DHT22;4249;49.072;9.770;2022-09-27T07:01:52;9.80;1.00
8424;DHT22;4249;49.072;9.770;2022-09-27T07:04:39;9.80;1.00
8424;DHT22;4249;49.072;9.770;2022-09-27T07:07:27;9.90;1.00
8424;DHT22;4249;49.072;9.770;2022-09-27T07:10:16;10.00;1.00
8424;DHT22;4249;49.072;9.770;2022-09-27T07:13:04;10.00;1.00
8424;DHT22;4249;49.072;9.770;2022-09-27T07:15:52;10.00;1.00
8424;DHT22;4249;49.072;9.770;2022-09-27T07:18:40;10.00;1.00
8424;DHT22;4249;49.072;9.770;2022-09-27T07:21:28;9.90;1.00
8424;DHT22;4249;49.072;9.770;2022-09-27T07:24:15;9.90;1.00
8424;DHT22;4249;49.072;9.770;2022-09-27T07:27:04;10.00;1.00
8424;DHT22;4249;49.072;9.770;2022-09-27T07:29:51;10.10;1.00
8424;DHT22;4249;49.072;9.770;2022-09-27T07:32:39;10.40;1.00
8424;DHT22;4249;49.072;9.770;2022-09-27T07:35:27;10.60;1.00
8424;DHT22;4249;49.072;9.770;2022-09-27T07:38:15;10.50;1.00
8424;DHT22;4249;49.072;9.770;2022-09-27T07:41:06;10.40;1.00
8424;DHT22;4249;49.072;9.770;2022-09-27T07:43:54;10.50;1.00
8424;DHT22;4249;49.072;9.770;2022-09-27T07:46:42;10.70;1.00
8424;DHT22;4249;49.072;9.770;2022-09-27T07:49:30;10.70;1.00
8424;DHT22;4249;49.072;9.770;2022-09-27T07:52:17;11.00;1.00
8424;DHT22;4249;49.072;9.770;2022-09-27T07:55:06;11.10;1.00
8424;DHT22;4249;49.072;9.770;2022-09-27T07:58:01;10.90;1.00
8424;DHT22;4249;49.072;9.770;2022-09-27T08:00:50;10.70;1.00
8424;DHT22;4249;49.072;9.770;2022-09-27T08:03:39;10.50;1.00
8424;DHT22;4249;49.072;9.770;2022-09-27T08:06:26;10.40;1.00
8424;DHT22;4249;49.072;9.770;2022-09-27T08:09:14;10.20;1.00
8424;DHT22;4249;49.072;9.770;2022-09-27T08:12:01;10.20;1.00
8424;DHT22;4249;49.072;9.770;2022-09-27T08:14:49;10.10;1.00
8424;DHT22;4249;49.072;9.770;2022-09-27T08:17:38;10.00;1.00
8424;DHT22;4249;49.072;9.770;2022-09-27T08:20:25;10.10;1.00
8424;DHT22;4249;49.072;9.770;2022-09-27T08:23:12;10.10;1.00
8424;DHT22;4249;49.072;9.770;2022-09-27T08:26:00;10.00;1.00
8424;DHT22;4249;49.072;9.770;2022-09-27T08:28:47;9.90;1.00
8424;DHT22;4249;49.072;9.770;2022-09-27T08:31:35;9.90;1.00
8424;DHT22;4249;49.072;9.770;2022-09-27T08:34:23;9.90;1.00
8424;DHT22;4249;49.072;9.770;2022-09-27T08:37:11;10.00;1.00
8424;DHT22;4249;49.072;9.770;2022-09-27T08:39:58;10.00;1.00
8424;DHT22;4249;49.072;9.770;2022-09-27T08:42:50;10.10;1.00
8424;DHT22;4249;49.072;9.770;2022-09-27T08:45:54;10.20;1.00
8424;DHT22;4249;49.072;9.770;2022-09-27T08:48:43;10.30;1.00
8424;DHT22;4249;49.072;9.770;2022-09-27T08:51:32;10.30;1.00
8424;DHT22;4249;49.072;9.770;2022-09-27T08:54:23;10.50;1.00
8424;DHT22;4249;49.072;9.770;2022-09-27T08:57:13;10.50;1.00
8424;DHT22;4249;49.072;9.770;2022-09-27T09:00:03;10.70;1.00
8424;DHT22;4249;49.072;9.770;2022-09-27T09:02:51;10.80;1.00
8424;DHT22;4249;49.072;9.770;2022-09-27T09:05:38;11.00;1.00
8424;DHT22;4249;49.072;9.770;2022-09-27T09:08:35;11.10;1.00
8424;DHT22;4249;49.072;9.770;2022-09-27T09:11:38;11.00;1.00
8424;DHT22;4249;49.072;9.770;2022-09-27T09:15:02;10.80;1.00
8424;DHT22;4249;49.072;9.770;2022-09-27T09:18:08;11.10;1.00
8424;DHT22;4249;49.072;9.770;2022-09-27T09:21:04;11.30;1.00
8424;DHT22;4249;49.072;9.770;2022-09-27T09:24:18;11.30;99.90
8424;DHT22;4249;49.072;9.770;2022-09-27T09:27:15;11.40;99.90
8424;DHT22;4249;49.072;9.770;2022-09-27T09:30:21;11.10;99.90
8424;DHT22;4249;49.072;9.770;2022-09-27T09:33:15;10.90;1.00
8424;DHT22;4249;49.072;9.770;2022-09-27T09:36:12;10.90;99.90
8424;DHT22;4249;49.072;9.770;2022-09-27T09:39:07;11.10;1.00
8424;DHT22;4249;49.072;9.770;2022-09-27T09:42:06;11.40;1.00
8424;DHT22;4249;49.072;9.770;2022-09-27T09:44:59;11.40;1.00
8424;DHT22;4249;49.072;9.770;2022-09-27T09:47:54;11.40;1.00
8424;DHT22;4249;49.072;9.770;2022-09-27T09:50:46;11.10;99.90
8424;DHT22;4249;49.072;9.770;2022-09-27T09:53:39;11.10;99.90
8424;DHT22;4249;49.072;9.770;2022-09-27T09:56:30;11.20;99.90
8424;DHT22;4249;49.072;9.770;2022-09-27T09:59:23;11.30;99.90
8424;DHT22;4249;49.072;9.770;2022-09-27T10:02:20;11.30;1.00
8424;DHT22;4249;49.072;9.770;2022-09-27T10:05:13;11.50;88.00
8424;DHT22;4249;49.072;9.770;2022-09-27T10:08:04;11.60;1.00
8424;DHT22;4249;49.072;9.770;2022-09-27T10:10:53;11.50;99.90
8424;DHT22;4249;49.072;9.770;2022-09-27T10:13:41;11.40;1.00
8424;DHT22;4249;49.072;9.770;2022-09-27T10:16:29;11.10;49.10
8424;DHT22;4249;49.072;9.770;2022-09-27T10:19:21;11.10;1.00
8424;DHT22;4249;49.072;9.770;2022-09-27T10:22:15;11.20;1.00
8424;DHT22;4249;49.072;9.770;2022-09-27T10:25:04;11.70;54.20
8424;DHT22;4249;49.072;9.770;2022-09-27T10:27:54;12.10;1.00
8424;DHT22;4249;49.072;9.770;2022-09-27T10:30:42;12.60;99.90
8424;DHT22;4249;49.072;9.770;2022-09-27T10:33:31;12.80;99.90
8424;DHT22;4249;49.072;9.770;2022-09-27T10:36:23;12.90;99.90
8424;DHT22;4249;49.072;9.770;2022-09-27T10:39:21;12.80;1.00
8424;DHT22;4249;49.072;9.770;2022-09-27T10:42:20;13.00;1.00
8424;DHT22;4249;49.072;9.770;2022-09-27T10:45:28;13.00;1.00
8424;DHT22;4249;49.072;9.770;2022-09-27T10:48:19;13.00;1.00
8424;DHT22;4249;49.072;9.770;2022-09-27T10:51:27;12.50;99.90
8424;DHT22;4249;49.072;9.770;2022-09-27T10:54:18;12.10;1.00
8424;DHT22;4249;49.072;9.770;2022-09-27T10:57:17;12.20;99.90
8424;DHT22;4249;49.072;9.770;2022-09-27T11:00:19;12.20;99.90
8424;DHT22;4249;49.072;9.770;2022-09-27T11:03:15;12.50;1.00
8424;DHT22;4249;49.072;9.770;2022-09-27T11:06:23;12.70;1.00
8424;DHT22;4249;49.072;9.770;2022-09-27T11:09:18;12.80;1.00
8424;DHT22;4249;49.072;9.770;2022-09-27T11:12:09;12.70;99.90
8424;DHT22;4249;49.072;9.770;2022-09-27T11:15:00;12.40;51.80
8424;DHT22;4249;49.072;9.770;2022-09-27T11:17:55;12.20;1.00
8424;DHT22;4249;49.072;9.770;2022-09-27T11:20:48;11.80;99.90
8424;DHT22;4249;49.072;9.770;2022-09-27T11:23:49;12.00;1.00
8424;DHT22;4249;49.072;9.770;2022-09-27T11:26:48;12.30;1.00
8424;DHT22;4249;49.072;9.770;2022-09-27T11:29:50;12.60;99.90
8424;DHT22;4249;49.072;9.770;2022-09-27T11:35:57;12.50;99.90
8424;DHT22;4249;49.072;9.770;2022-09-27T11:38:31;12.30;1.00
8424;DHT22;4249;49.072;9.770;2022-09-27T11:41:16;11.90;1.00
8424;DHT22;4249;49.072;9.770;2022-09-27T11:44:00;11.60;1.00
8424;DHT22;4249;49.072;9.770;2022-09-27T11:46:33;11.40;1.00
8424;DHT22;4249;49.072;9.770;2022-09-27T11:49:17;11.50;1.00
8424;DHT22;4249;49.072;9.770;2022-09-27T11:52:05;11.40;99.90
8424;DHT22;4249;49.072;9.770;2022-09-27T11:54:51;11.50;1.00
8424;DHT22;4249;49.072;9.770;2022-09-27T11:57:24;11.70;99.90
8424;DHT22;4249;49.072;9.770;2022-09-27T12:00:11;11.80;1.00
8424;DHT22;4249;49.072;9.770;2022-09-27T12:03:12;11.90;1.00
8424;DHT22;4249;49.072;9.770;2022-09-27T12:05:49;11.90;1.00
8424;DHT22;4249;49.072;9.770;2022-09-27T12:08:32;11.60;1.00
8424;DHT22;4249;49.072;9.770;2022-09-27T12:11:10;11.40;1.00
8424;DHT22;4249;49.072;9.770;2022-09-27T12:13:42;11.30;99.90
8424;DHT22;4249;49.072;9.770;2022-09-27T12:16:31;11.20;1.00
8424;DHT22;4249;49.072;9.770;2022-09-27T12:19:22;11.00;99.90
8424;DHT22;4249;49.072;9.770;2022-09-27T12:22:13;10.80;1.00
8424;DHT22;4249;49.072;9.770;2022-09-27T12:25:02;10.60;99.90
8424;DHT22;4249;49.072;9.770;2022-09-27T12:27:54;10.40;99.90
8424;DHT22;4249;49.072;9.770;2022-09-27T12:30:47;10.30;99.90
8424;DHT22;4249;49.072;9.770;2022-09-27T12:33:38;10.00;1.00
8424;DHT22;4249;49.072;9.770;2022-09-27T12:36:32;9.60;1.00
8424;DHT22;4249;49.072;9.770;2022-09-27T12:39:25;9.60;1.00
8424;DHT22;4249;49.072;9.770;2022-09-27T12:42:18;9.30;1.00
8424;DHT22;4249;49.072;9.770;2022-09-27T12:45:10;9.10;1.00
8424;DHT22;4249;49.072;9.770;2022-09-27T12:48:06;8.90;1.00
8424;DHT22;4249;49.072;9.770;2022-09-27T12:50:59;8.70;1.00
8424;DHT22;4249;49.072;9.770;2022-09-27T12:54:01;8.60;1.00
8424;DHT22;4249;49.072;9.770;2022-09-27T12:56:59;8.50;1.00
8424;DHT22;4249;49.072;9.770;2022-09-27T13:00:08;8.50;1.00
8424;DHT22;4249;49.072;9.770;2022-09-27T13:03:36;8.50;1.00
8424;DHT22;4249;49.072;9.770;2022-09-27T13:06:39;9.00;1.00
8424;DHT22;4249;49.072;9.770;2022-09-27T13:09:56;9.40;1.00
8424;DHT22;4249;49.072;9.770;2022-09-27T13:12:48;9.80;1.00
8424;DHT22;4249;49.072;9.770;2022-09-27T13:15:38;10.20;1.00
8424;DHT22;4249;49.072;9.770;2022-09-27T13:18:49;10.10;1.00
8424;DHT22;4249;49.072;9.770;2022-09-27T13:21:57;10.40;1.00
8424;DHT22;4249;49.072;9.770;2022-09-27T13:24:46;10.30;1.00
8424;DHT22;4249;49.072;9.770;2022-09-27T13:27:38;10.10;1.00
8424;DHT22;4249;49.072;9.770;2022-09-27T13:30:46;10.10;1.00
8424;DHT22;4249;49.072;9.770;2022-09-27T13:33:43;10.30;1.00
8424;DHT22;4249;49.072;9.770;2022-09-27T13:36:32;10.30;1.00
8424;DHT22;4249;49.072;9.770;2022-09-27T13:39:20;10.50;1.00
8424;DHT22;4249;49.072;9.770;2022-09-27T13:42:18;10.50;1.00
8424;DHT22;4249;49.072;9.770;2022-09-27T13:45:20;10.50;99.90
8424;DHT22;4249;49.072;9.770;2022-09-27T13:48:16;10.50;1.00
8424;DHT22;4249;49.072;9.770;2022-09-27T13:51:22;10.40;1.00
8424;DHT22;4249;49.072;9.770;2022-09-27T13:54:35;10.40;1.00
8424;DHT22;4249;49.072;9.770;2022-09-27T13:57:47;10.40;99.90
8424;DHT22;4249;49.072;9.770;2022-09-27T14:00:39;10.40;1.00
8424;DHT22;4249;49.072;9.770;2022-09-27T14:03:48;10.50;1.00
8424;DHT22;4249;49.072;9.770;2022-09-27T14:06:43;10.70;99.90
8424;DHT22;4249;49.072;9.770;2022-09-27T14:09:33;10.80;1.00
8424;DHT22;4249;49.072;9.770;2022-09-27T14:12:24;11.10;1.00
8424;DHT22;4249;49.072;9.770;2022-09-27T14:15:18;11.40;99.90
8424;DHT22;4249;49.072;9.770;2022-09-27T14:18:09;11.70;1.00
8424;DHT22;4249;49.072;9.770;2022-09-27T14:21:13;11.70;99.90
8424;DHT22;4249;49.072;9.770;2022-09-27T14:24:22;11.50;99.90
8424;DHT22;4249;49.072;9.770;2022-09-27T14:27:12;11.30;1.00
8424;DHT22;4249;49.072;9.770;2022-09-27T14:30:09;11.10;99.90
8424;DHT22;4249;49.072;9.770;2022-09-27T14:32:57;11.00;99.40
8424;DHT22;4249;49.072;9.770;2022-09-27T14:35:47;11.00;99.90
8424;DHT22;4249;49.072;9.770;2022-09-27T14:38:53;10.90;26.20
8424;DHT22;4249;49.072;9.770;2022-09-27T14:41:41;11.00;1.00
8424;DHT22;4249;49.072;9.770;2022-09-27T14:44:29;11.00;1.00
8424;DHT22;4249;49.072;9.770;2022-09-27T14:47:20;11.00;3.70
8424;DHT22;4249;49.072;9.770;2022-09-27T14:50:15;11.00;96.30
8424;DHT22;4249;49.072;9.770;2022-09-27T14:53:19;10.90;99.90
8424;DHT22;4249;49.072;9.770;2022-09-27T14:56:11;11.00;1.00
8424;DHT22;4249;49.072;9.770;2022-09-27T14:59:09;11.10;44.20
8424;DHT22;4249;49.072;9.770;2022-09-27T15:02:03;11.10;1.00
8424;DHT22;4249;49.072;9.770;2022-09-27T15:04:55;11.10;1.00
8424;DHT22;4249;49.072;9.770;2022-09-27T15:07:43;11.20;1.00
8424;DHT22;4249;49.072;9.770;2022-09-27T15:10:34;11.20;1.00
8424;DHT22;4249;49.072;9.770;2022-09-27T15:13:21;11.10;99.90
8424;DHT22;4249;49.072;9.770;2022-09-27T15:16:15;11.00;99.90
8424;DHT22;4249;49.072;9.770;2022-09-27T15:19:13;10.80;1.00
8424;DHT22;4249;49.072;9.770;2022-09-27T15:22:28;10.60;99.90
8424;DHT22;4249;49.072;9.770;2022-09-27T15:25:21;10.50;99.90
8424;DHT22;4249;49.072;9.770;2022-09-27T15:28:15;10.20;1.00
8424;DHT22;4249;49.072;9.770;2022-09-27T15:31:04;10.10;1.00
8424;DHT22;4249;49.072;9.770;2022-09-27T15:33:55;10.00;1.00
8424;DHT22;4249;49.072;9.770;2022-09-27T15:36:52;10.00;1.00
8424;DHT22;4249;49.072;9.770;2022-09-27T15:39:41;9.90;1.00
8424;DHT22;4249;49.072;9.770;2022-09-27T15:42:53;9.90;1.00
8424;DHT22;4249;49.072;9.770;2022-09-27T15:45:48;9.90;1.00
8424;DHT22;4249;49.072;9.770;2022-09-27T15:48:35;10.00;1.00
8424;DHT22;4249;49.072;9.770;2022-09-27T15:51:39;10.00;1.00
8424;DHT22;4249;49.072;9.770;2022-09-27T15:54:27;10.20;1.00
8424;DHT22;4249;49.072;9.770;2022-09-27T15:57:15;10.10;1.00
8424;DHT22;4249;49.072;9.770;2022-09-27T16:00:03;10.10;1.00
8424;DHT22;4249;49.072;9.770;2022-09-27T16:02:50;10.10;1.00
8424;DHT22;4249;49.072;9.770;2022-09-27T16:05:38;10.00;1.00
8424;DHT22;4249;49.072;9.770;2022-09-27T16:08:30;9.90;1.00
8424;DHT22;4249;49.072;9.770;2022-09-27T16:11:17;10.10;1.00
8424;DHT22;4249;49.072;9.770;2022-09-27T16:14:04;10.10;1.00
8424;DHT22;4249;49.072;9.770;2022-09-27T16:16:54;10.10;1.00
8424;DHT22;4249;49.072;9.770;2022-09-27T16:19:42;10.00;1.00
8424;DHT22;4249;49.072;9.770;2022-09-27T16:22:29;10.00;1.00
8424;DHT22;4249;49.072;9.770;2022-09-27T16:25:19;9.90;1.00
8424;DHT22;4249;49.072;9.770;2022-09-27T16:28:06;9.80;1.00
8424;DHT22;4249;49.072;9.770;2022-09-27T16:31:00;9.60;1.00
8424;DHT22;4249;49.072;9.770;2022-09-27T16:33:48;9.50;1.00
8424;DHT22;4249;49.072;9.770;2022-09-27T16:36:38;9.40;1.00
8424;DHT22;4249;49.072;9.770;2022-09-27T16:39:25;9.40;1.00
8424;DHT22;4249;49.072;9.770;2022-09-27T16:42:14;9.40;1.00
8424;DHT22;4249;49.072;9.770;2022-09-27T16:45:02;9.40;1.00
8424;DHT22;4249;49.072;9.770;2022-09-27T16:47:50;9.40;1.00
8424;DHT22;4249;49.072;9.770;2022-09-27T16:50:37;9.40;1.00
8424;DHT22;4249;49.072;9.770;2022-09-27T16:53:42;9.30;1.00
8424;DHT22;4249;49.072;9.770;2022-09-27T16:56:29;9.30;1.00
8424;DHT22;4249;49.072;9.770;2022-09-27T16:59:18;9.20;1.00
8424;DHT22;4249;49.072;9.770;2022-09-27T17:02:05;9.20;1.00
8424;DHT22;4249;49.072;9.770;2022-09-27T17:04:53;9.10;1.00
8424;DHT22;4249;49.072;9.770;2022-09-27T17:07:40;9.00;1.00
8424;DHT22;4249;49.072;9.770;2022-09-27T17:10:27;9.00;1.00
8424;DHT22;4249;49.072;9.770;2022-09-27T17:13:16;8.90;1.00
8424;DHT22;4249;49.072;9.770;2022-09-27T17:16:06;8.90;1.00
8424;DHT22;4249;49.072;9.770;2022-09-27T17:18:53;8.90;1.00
8424;DHT22;4249;49.072;9.770;2022-09-27T17:21:41;8.80;1.00
8424;DHT22;4249;49.072;9.770;2022-09-27T17:24:29;8.90;1.00
8424;DHT22;4249;49.072;9.770;2022-09-27T17:27:16;8.90;1.00
8424;DHT22;4249;49.072;9.770;2022-09-27T17:30:04;8.90;1.00
8424;DHT22;4249;49.072;9.770;2022-09-27T17:32:53;9.00;1.00
8424;DHT22;4249;49.072;9.770;2022-09-27T17:35:41;8.90;1.00
8424;DHT22;4249;49.072;9.770;2022-09-27T17:38:29;9.00;1.00
8424;DHT22;4249;49.072;9.770;2022-09-27T17:41:19;8.90;1.00
8424;DHT22;4249;49.072;9.770;2022-09-27T17:44:06;9.00;1.00
8424;DHT22;4249;49.072;9.770;2022-09-27T17:46:53;9.00;1.00
8424;DHT22;4249;49.072;9.770;2022-09-27T17:49:56;8.90;1.00
8424;DHT22;4249;49.072;9.770;2022-09-27T17:53:00;8.80;1.00
8424;DHT22;4249;49.072;9.770;2022-09-27T17:55:47;8.90;1.00
8424;DHT22;4249;49.072;9.770;2022-09-27T17:58:35;8.70;1.00
8424;DHT22;4249;49.072;9.770;2022-09-27T18:01:23;8.60;1.00
8424;DHT22;4249;49.072;9.770;2022-09-27T18:04:13;8.60;1.00
8424;DHT22;4249;49.072;9.770;2022-09-27T18:07:01;8.50;1.00
8424;DHT22;4249;49.072;9.770;2022-09-27T18:09:49;8.60;1.00
8424;DHT22;4249;49.072;9.770;2022-09-27T18:12:36;8.70;1.00
8424;DHT22;4249;49.072;9.770;2022-09-27T18:15:23;8.60;1.00
8424;DHT22;4249;49.072;9.770;2022-09-27T18:18:11;8.60;1.00
8424;DHT22;4249;49.072;9.770;2022-09-27T18:21:00;8.50;1.00
8424;DHT22;4249;49.072;9.770;2022-09-27T18:23:50;8.50;1.00
8424;DHT22;4249;49.072;9.770;2022-09-27T18:26:37;8.40;1.00
8424;DHT22;4249;49.072;9.770;2022-09-27T18:29:25;8.40;1.00
8424;DHT22;4249;49.072;9.770;2022-09-27T18:32:13;8.40;1.00
8424;DHT22;4249;49.072;9.770;2022-09-27T18:35:00;8.40;1.00
8424;DHT22;4249;49.072;9.770;2022-09-27T18:37:48;8.30;1.00
8424;DHT22;4249;49.072;9.770;2022-09-27T18:40:37;8.20;1.00
8424;DHT22;4249;49.072;9.770;2022-09-27T18:43:24;8.20;1.00
8424;DHT22;4249;49.072;9.770;2022-09-27T18:46:14;8.10;1.00
8424;DHT22;4249;49.072;9.770;2022-09-27T18:49:05;8.00;1.00
8424;DHT22;4249;49.072;9.770;2022-09-27T18:51:52;8.00;1.00
8424;DHT22;4249;49.072;9.770;2022-09-27T18:54:39;7.90;1.00
8424;DHT22;4249;49.072;9.770;2022-09-27T18:57:28;7.90;1.00
8424;DHT22;4249;49.072;9.770;2022-09-27T19:00:17;7.80;1.00
8424;DHT22;4249;49.072;9.770;2022-09-27T19:03:05;7.80;1.00
8424;DHT22;4249;49.072;9.770;2022-09-27T19:05:53;7.80;1.00
8424;DHT22;4249;49.072;9.770;2022-09-27T19:08:40;7.80;1.00
8424;DHT22;4249;49.072;9.770;2022-09-27T19:11:28;7.90;1.00
8424;DHT22;4249;49.072;9.770;2022-09-27T19:13:57;7.90;1.00